ADDS METAR Data INFO
IDs: Format: Raw Decoded Include TAF

Data at: 0838 UTC 21 Oct 2017

KWMC 210756Z AUTO 12004KT 10SM FEW065 M03/M04 A3012 RMK AO2 SLP205 T10281044 401611028 TSNO
KWMC 210656Z AUTO 28005KT 10SM CLR M01/M04 A3010 RMK AO2 SLP193 T10111044 TSNO
KWMC 210556Z AUTO 07004KT 10SM CLR 01/M03 A3010 RMK AO2 SLP194 T00111028 10100 20000 53020 TSNO
KWMC 210456Z AUTO 27006KT 10SM CLR 02/M03 A3008 RMK AO2 SLP186 T00171033 TSNO
KWMC 210356Z AUTO 23005KT 10SM CLR 02/M03 A3005 RMK AO2 SLP179 T00221033 TSNO
KWMC 210256Z AUTO 24007KT 10SM CLR 02/M03 A3003 RMK AO2 SLP175 T00221033 51016 TSNO
KWMC 210156Z AUTO 23006KT 10SM CLR 04/M04 A3002 RMK AO2 SLP166 T00441039 TSNO
KWMC 210056Z AUTO 26010KT 10SM CLR 08/M04 A3000 RMK AO2 SLP155 T00781039 TSNO
KWMC 202356Z AUTO 26012G17KT 10SM SCT060 BKN095 11/M05 A2998 RMK AO2 SLP143 T01061050 10111 20072 53008 TSNO
KWMC 202256Z AUTO 25015KT 10SM FEW065 SCT085 11/M05 A2996 RMK AO2 SLP134 T01061050 TSNO
KWMC 202156Z AUTO 25013G22KT 10SM CLR 11/M04 A2996 RMK AO2 SLP120 T01061044 TSNO
KWMC 202056Z AUTO 27017G22KT 10SM SCT065 SCT080 10/M04 A2995 RMK AO2 SLP123 T01001039 56001 TSNO
KWMC 201956Z AUTO 25011G18KT 10SM BKN060 09/M03 A2995 RMK AO2 SLP129 T00941028 TSNO
KWMC 201856Z AUTO 26010G19KT 10SM SCT055 09/M02 A2995 RMK AO2 SLP125 T00941017 TSNO
KWMC 201756Z AUTO 26009KT 10SM BKN036 OVC045 07/M01 A2996 RMK AO2 SLP132 60004 T00721011 10072 20028 51019 TSNO
KWMC 201656Z AUTO 26015KT 10SM CLR 07/01 A2993 RMK AO2 SLP120 T00720006 TSNO
KWMC 201556Z AUTO 00000KT 10SM SCT037 BKN047 OVC055 06/02 A2993 RMK AO2 SLP113 T00560022 TSNO
KWMC 201456Z AUTO 24006KT 10SM FEW032 SCT070 03/01 A2989 RMK AO2 RAE1358 SLP106 P0000 60004 T00330011 51041 TSNO
KWMC 201356Z AUTO 25013G24KT 10SM -RA SCT030 BKN042 BKN055 03/02 A2986 RMK AO2 PK WND 26026/1329 RAB12 SLP096 P0000 T00330017 TSNO
KWMC 201303Z AUTO 00000KT 10SM SCT009 SCT015 OVC039 03/02 A2982 RMK AO2 T00280017 TSNO
KWMC 201256Z AUTO 00000KT 10SM BKN009 BKN017 OVC034 03/02 A2980 RMK AO2 RAE50 SLP076 P0004 T00280017 TSNO
KWMC 201246Z AUTO 04006KT 10SM -RA SCT009 OVC017 03/02 A2979 RMK AO2 P0004 T00280017 TSNO
KWMC 201156Z AUTO 27012KT 10SM -RA FEW023 OVC029 03/03 A2976 RMK AO2 PK WND 27036/1122 SLP050 P0004 60004 70004 T00330028 10161 20033 53044 TSNO
KWMC 201131Z AUTO 27018G36KT 7SM -RA OVC025 03/02 A2974 RMK AO2 PK WND 27036/1122 P0003 T00330022 TSNO
KWMC 201056Z AUTO 25024G34KT 10SM -RA FEW055 BKN070 OVC080 06/03 A2967 RMK AO2 PK WND 26038/1032 WSHFT 1025 RAB32E41B46 SLP016 P0000 T00560033 TSNO
KWMC 201045Z AUTO 26022G37KT 7SM BKN070 BKN085 OVC110 08/03 A2964 RMK AO2 PK WND 26038/1032 WSHFT 1025 RAB32E41 PRESRR P0000 T00830033 TSNO
KWMC 200956Z AUTO 22015KT 10SM BKN100 16/M01 A2958 RMK AO2 SLP971 T01561011 TSNO
KWMC 200856Z AUTO 16011KT 10SM CLR 12/M01 A2961 RMK AO2 SLP986 T01171011 58017 TSNO
KWMC 200756Z AUTO 19006KT 10SM CLR 09/M01 A2964 RMK AO2 SLP001 T00941011 402391067 TSNO
KWMC 200656Z AUTO 22004KT 10SM CLR 10/M02 A2964 RMK AO2 SLP000 T01001022 TSNO
KWMC 200556Z AUTO 20007KT 10SM CLR 09/M06 A2967 RMK AO2 SLP018 T00941061 10217 20094 56011 TSNO
KWMC 200456Z AUTO 18008KT 10SM CLR 12/M06 A2967 RMK AO2 SLP023 T01171061 TSNO
KWMC 200356Z AUTO 22010G18KT 10SM CLR 17/01 A2968 RMK AO2 SLP029 T01720006 TSNO
KWMC 200256Z AUTO 20008KT 10SM CLR 16/M09 A2970 RMK AO2 SLP048 T01611089 56017 TSNO
KWMC 200156Z AUTO 17009KT 10SM CLR 14/M10 A2972 RMK AO2 SLP059 T01391100 TSNO
KWMC 200056Z AUTO 20007KT 10SM CLR 16/M09 A2973 RMK AO2 SLP058 T01611089 TSNO
KWMC 192356Z AUTO 24013KT 10SM CLR 22/M08 A2976 RMK AO2 SLP061 T02171083 10239 20172 58024 TSNO
KWMC 192256Z AUTO 23013KT 10SM CLR 23/M10 A2980 RMK AO2 SLP074 T02281100 TSNO
KWMC 192156Z AUTO 24013KT 10SM CLR 23/M12 A2982 RMK AO2 SLP073 T02331122 TSNO
KWMC 192056Z AUTO 24012G17KT 10SM CLR 23/M13 A2984 RMK AO2 SLP083 T02331128 58027 TSNO